Pike Station, Illinois
Current Conditions -  °F | °C
As of 11:55 AM on Monday 24 Nov 2014 (Local Time) from KPPQ Reporting Station
Overcast Overcast  
Wind Chill: 26°   Ceiling: 3300
Heat Index: 35°   Visibility: 10mi
Dew Point: 29°   Wind: 15mph
Humidity: 77%   Direction: 240°WSW
Pressure: 29.64"   Gusts: 20mph
Location:  39.5365°N, 91.0118°W
Report Text: KPPQ 241755Z AUTO 24013G17KT 10SM SCT027 BKN033 OVC040 02/M02 A2964 RMK AO2 T00171019 10021 20011
Loading
Personal Weather Stations






























Interactive Weather Map New forecast layout! Learn more

10-Day Weather Forecast

Advertisements
Track Severe Weather on mobile